Time;durP1;ratioP1;P1;durP2;ratioP2;P2;SDS_P1;SDS_P2;PMS_P1;PMS_P2;Temp;Humidity;BMP_temperature;BMP_pressure;BME280_temperature;BME280_humidity;BME280_pressure;Samples;Min_cycle;Max_cycle;Signal;HPM_P1;HPM_P2
2023/05/15 00:00:57;;;;;;;9.93;6.87;;;;;;;-143.84;94.40;43920.09;5072392;28;20484;-64
2023/05/15 00:03:26;;;;;;;20.90;7.20;;;;;;;-143.84;94.78;43910.56;5072504;28;20436;-64
2023/05/15 00:05:53;;;;;;;11.40;7.50;;;;;;;-143.84;95.16;43937.22;5072737;28;20454;-64
2023/05/15 00:08:20;;;;;;;6.97;6.27;;;;;;;-143.84;94.99;43904.84;5072641;28;20475;-64
2023/05/15 00:10:47;;;;;;;8.13;7.33;;;;;;;-143.84;95.34;43931.50;5072700;28;20491;-64
2023/05/15 00:13:17;;;;;;;6.60;6.10;;;;;;;-143.84;95.07;43922.00;5072310;28;20952;-64
2023/05/15 00:15:44;;;;;;;10.53;6.67;;;;;;;-143.84;96.15;43967.69;5072342;28;20439;-64
2023/05/15 00:18:11;;;;;;;8.83;7.53;;;;;;;-143.84;96.07;43965.78;5072302;28;20496;-64
2023/05/15 00:20:40;;;;;;;14.33;7.63;;;;;;;-143.84;96.34;43982.91;5072128;28;20473;-64
2023/05/15 00:23:07;;;;;;;23.73;8.77;;;;;;;-143.84;96.44;43990.53;5072243;28;20429;-64
2023/05/15 00:25:34;;;;;;;8.67;7.57;;;;;;;-143.84;96.38;43990.53;5072519;28;20435;-64
2023/05/15 00:28:01;;;;;;;7.93;7.23;;;;;;;-143.84;96.28;43992.41;5071851;28;20489;-64
2023/05/15 00:30:28;;;;;;;8.80;7.90;;;;;;;-143.84;96.36;43982.91;5072435;28;20862;-64
2023/05/15 00:32:55;;;;;;;19.97;7.83;;;;;;;-143.84;96.61;44000.03;5072044;28;20443;-64
2023/05/15 00:35:23;;;;;;;21.53;7.50;;;;;;;-143.84;96.73;44009.56;5072394;28;20430;-64
2023/05/15 00:37:51;;;;;;;13.93;7.60;;;;;;;-143.84;96.85;44017.16;5072413;28;20504;-64
2023/05/15 00:40:21;;;;;;;11.80;9.40;;;;;;;-143.84;97.16;44015.25;5072227;28;20481;-64
2023/05/15 00:42:50;;;;;;;9.27;8.37;;;;;;;-143.84;97.23;44013.38;5072338;28;20517;-64
2023/05/15 00:45:17;;;;;;;9.27;8.47;;;;;;;-143.84;97.46;44034.31;5072004;28;20426;-64
2023/05/15 00:47:45;;;;;;;10.50;9.50;;;;;;;-143.84;97.88;44047.63;5071911;28;20810;-64
2023/05/15 00:50:13;;;;;;;11.17;9.27;;;;;;;-143.84;97.86;44049.53;5071949;28;20497;-64
2023/05/15 00:52:40;;;;;;;9.37;8.53;;;;;;;-143.84;97.83;44036.22;5071999;28;20433;-64
2023/05/15 00:55:09;;;;;;;9.23;8.30;;;;;;;-143.84;97.91;44040.00;5072207;28;20492;-64
2023/05/15 00:57:37;;;;;;;11.60;9.97;;;;;;;-143.84;97.75;44043.81;5072776;28;20506;-64
2023/05/15 01:00:09;;;;;;;18.73;8.90;;;;;;;-143.84;97.60;44026.69;5072103;28;20984;-68
2023/05/15 01:02:36;;;;;;;10.03;8.33;;;;;;;-143.84;97.44;44040.00;5075759;28;20444;-64
2023/05/15 01:05:03;;;;;;;11.70;9.20;;;;;;;-143.84;97.11;44015.25;5075883;28;20439;-64
2023/05/15 01:07:34;;;;;;;10.10;9.17;;;;;;;-143.84;96.67;44005.75;5076096;28;20496;-64
2023/05/15 01:10:03;;;;;;;9.40;8.53;;;;;;;-143.84;96.53;44001.94;5076079;28;20427;-64
2023/05/15 01:12:32;;;;;;;15.23;7.90;;;;;;;-143.84;96.40;43996.22;5075671;28;20950;-64
2023/05/15 01:15:00;;;;;;;8.13;7.43;;;;;;;-143.84;96.50;43996.22;5075761;28;20495;-64
2023/05/15 01:17:27;;;;;;;8.63;7.73;;;;;;;-143.84;96.23;43984.81;5075983;28;20486;-64
2023/05/15 01:19:56;;;;;;;9.40;7.90;;;;;;;-143.84;96.24;43981.00;5076257;28;20528;-64
2023/05/15 01:22:40;;;;;;;15.37;7.67;;;;;;;-143.84;96.04;43979.09;5075853;28;20489;-64
2023/05/15 01:25:37;;;;;;;9.73;8.07;;;;;;;-143.84;95.91;43977.19;5075473;28;20434;-64
2023/05/15 01:28:09;;;;;;;11.37;8.30;;;;;;;-143.84;95.52;43958.16;5075270;28;20534;-64
2023/05/15 01:30:40;;;;;;;15.63;7.63;;;;;;;-143.84;95.19;43952.44;5075667;28;20505;-64
2023/05/15 01:33:15;;;;;;;11.27;8.53;;;;;;;-143.84;94.98;43923.91;5075619;28;20434;-64
2023/05/15 01:35:48;;;;;;;11.57;7.97;;;;;;;-143.84;94.77;43916.28;5075559;28;20460;-64
2023/05/15 01:38:24;;;;;;;12.80;8.80;;;;;;;-143.84;95.03;43931.50;5075553;28;20506;-64
2023/05/15 01:40:58;;;;;;;9.37;7.40;;;;;;;-143.84;94.35;43893.44;5075137;28;20468;-64
2023/05/15 01:43:30;;;;;;;8.33;7.53;;;;;;;-143.84;93.96;43895.34;5075074;28;20425;-64
2023/05/15 01:45:59;;;;;;;7.70;7.00;;;;;;;-143.84;93.89;43902.97;5075416;28;20436;-64
2023/05/15 01:48:28;;;;;;;8.83;8.00;;;;;;;-143.84;94.01;43878.22;5074995;28;21015;-64
2023/05/15 01:51:01;;;;;;;9.90;8.10;;;;;;;-143.84;93.79;43883.91;5075007;28;20431;-64
2023/05/15 01:53:31;;;;;;;11.53;7.83;;;;;;;-143.84;93.83;43866.78;5075283;28;20423;-64
2023/05/15 01:56:00;;;;;;;8.43;7.57;;;;;;;-143.84;93.52;43838.25;5075225;28;20427;-64
2023/05/15 01:58:29;;;;;;;7.03;6.43;;;;;;;-143.84;93.13;43862.97;5075129;28;20871;-64
2023/05/15 02:00:56;;;;;;;16.50;6.97;;;;;;;-143.84;93.23;43842.03;5074746;28;20471;-64
2023/05/15 02:03:25;;;;;;;7.93;6.63;;;;;;;-143.84;93.23;43864.88;5075065;28;20486;-64
2023/05/15 02:05:55;;;;;;;9.30;6.00;;;;;;;-143.84;93.02;43857.28;5074679;28;20939;-64
2023/05/15 02:08:27;;;;;;;9.60;5.90;;;;;;;-143.84;93.25;43834.44;5075027;28;20513;-64
2023/05/15 02:10:56;;;;;;;6.23;5.73;;;;;;;-143.84;93.37;43838.25;5074631;28;20439;-64
2023/05/15 02:13:25;;;;;;;7.83;5.73;;;;;;;-143.84;93.17;43843.94;5074068;28;20457;-65
2023/05/15 02:15:53;;;;;;;5.97;5.27;;;;;;;-143.84;92.90;43845.84;5074845;28;20506;-64
2023/05/15 02:18:21;;;;;;;6.70;5.60;;;;;;;-143.84;93.17;43817.31;5074534;28;20503;-64
2023/05/15 02:20:48;;;;;;;6.60;6.00;;;;;;;-143.84;93.37;43855.38;5074397;28;20472;-64
2023/05/15 02:23:15;;;;;;;6.73;6.13;;;;;;;-143.84;93.83;43853.47;5074364;28;20836;-64
2023/05/15 02:25:50;;;;;;;8.90;5.40;;;;;;;-143.84;94.29;43891.53;5074381;28;20443;-64
2023/05/15 02:28:24;;;;;;;7.50;5.57;;;;;;;-143.84;94.39;43895.34;5074073;28;20486;-64
2023/05/15 02:30:58;;;;;;;10.10;5.67;;;;;;;-143.84;93.94;43883.91;5074287;28;20428;-64
2023/05/15 02:33:31;;;;;;;5.60;5.10;;;;;;;-143.84;93.85;43876.31;5074526;28;20465;-64
2023/05/15 02:36:05;;;;;;;5.40;4.90;;;;;;;-143.84;93.67;43876.31;5074180;28;20953;-64
2023/05/15 02:38:37;;;;;;;6.57;5.97;;;;;;;-143.84;94.27;43899.16;5074148;28;20437;-64
2023/05/15 02:41:06;;;;;;;8.60;5.57;;;;;;;-143.84;94.87;43906.75;5074012;28;20463;-64
2023/05/15 02:43:35;;;;;;;7.87;6.50;;;;;;;-143.84;95.05;43914.38;5074362;28;20909;-64
2023/05/15 02:46:05;;;;;;;6.50;5.60;;;;;;;-143.84;94.85;43935.31;5074038;28;20439;-64
2023/05/15 02:48:34;;;;;;;6.23;5.63;;;;;;;-143.84;95.32;43948.63;5073964;28;20954;-64
2023/05/15 02:51:01;;;;;;;6.23;5.30;;;;;;;-143.84;95.33;43937.22;5074215;28;20850;-64
2023/05/15 02:53:29;;;;;;;6.47;5.40;;;;;;;-143.84;95.40;43944.84;5074198;28;20423;-64
2023/05/15 02:55:56;;;;;;;7.97;5.80;;;;;;;-143.84;95.64;43948.63;5073736;28;20442;-64
2023/05/15 02:58:23;;;;;;;6.20;5.60;;;;;;;-143.84;96.37;43965.78;5073736;28;20490;-64
2023/05/15 03:00:50;;;;;;;6.10;5.60;;;;;;;-143.84;96.51;43977.19;5073908;28;20473;-64
2023/05/15 03:03:19;;;;;;;9.17;5.43;;;;;;;-143.84;96.34;43982.91;5073651;28;20931;-64
2023/05/15 03:05:46;;;;;;;6.73;4.53;;;;;;;-143.84;95.96;43963.88;5073589;28;20442;-64
2023/05/15 03:08:13;;;;;;;6.27;5.07;;;;;;;-143.84;96.10;43967.69;5074636;28;20428;-64
2023/05/15 03:10:40;;;;;;;5.27;4.90;;;;;;;-143.84;95.84;43971.47;5073534;28;20500;-64
2023/05/15 03:13:07;;;;;;;6.50;4.83;;;;;;;-143.84;96.06;43960.06;5073388;28;20934;-63
2023/05/15 03:15:34;;;;;;;7.10;5.23;;;;;;;-143.84;96.44;43975.28;5073699;28;20482;-64
2023/05/15 03:18:01;;;;;;;8.47;5.40;;;;;;;-143.84;96.69;43992.41;5073367;28;20433;-64
2023/05/15 03:20:30;;;;;;;6.00;5.40;;;;;;;-143.84;96.50;43984.81;5073450;28;20477;-62
2023/05/15 03:22:57;;;;;;;6.40;5.50;;;;;;;-143.84;96.44;43992.41;5073255;28;20433;-64
2023/05/15 03:25:24;;;;;;;5.43;5.03;;;;;;;-143.84;96.67;43992.41;5073493;28;20552;-63
2023/05/15 03:27:51;;;;;;;6.03;5.00;;;;;;;-143.84;96.64;43984.81;5072976;28;20558;-63
2023/05/15 03:30:18;;;;;;;6.23;4.63;;;;;;;-143.84;96.50;43981.00;5073050;28;20431;-63
2023/05/15 03:32:45;;;;;;;6.33;5.00;;;;;;;-143.84;96.55;43998.13;5073038;28;20460;-63
2023/05/15 03:35:12;;;;;;;9.23;5.53;;;;;;;-143.84;96.54;43977.19;5072965;28;20952;-63
2023/05/15 03:37:41;;;;;;;5.87;5.00;;;;;;;-143.84;97.23;44017.16;5073588;28;20502;-63
2023/05/15 03:40:09;;;;;;;6.70;5.30;;;;;;;-143.84;97.27;44024.78;5073157;28;20422;-63
2023/05/15 03:42:36;;;;;;;12.53;5.50;;;;;;;-143.84;96.68;44005.75;5072836;28;20444;-64
2023/05/15 03:45:03;;;;;;;5.47;4.97;;;;;;;-143.84;96.79;44003.84;5073153;28;20962;-63
2023/05/15 03:47:30;;;;;;;5.67;5.17;;;;;;;-143.84;96.69;44000.03;5072809;28;20427;-63
2023/05/15 03:49:57;;;;;;;4.90;4.50;;;;;;;-143.84;96.41;43994.31;5072954;28;20870;-63
2023/05/15 03:52:25;;;;;;;5.40;5.00;;;;;;;-143.84;96.29;43958.16;5072697;28;20996;-63
2023/05/15 03:54:53;;;;;;;4.70;4.40;;;;;;;-143.84;96.87;43996.22;5072644;28;20842;-63
2023/05/15 03:57:20;;;;;;;13.23;5.10;;;;;;;-143.84;96.53;44001.94;5072553;28;20446;-63
2023/05/15 03:59:47;;;;;;;7.73;5.30;;;;;;;-143.84;96.73;44005.75;5072858;28;20440;-64
2023/05/15 04:02:14;;;;;;;11.43;4.80;;;;;;;-143.84;97.17;44022.88;5072459;28;20528;-63
2023/05/15 04:04:43;;;;;;;10.37;5.20;;;;;;;-143.84;97.01;44009.56;5072730;28;20438;-65
2023/05/15 04:07:10;;;;;;;6.63;4.63;;;;;;;-143.84;97.04;44017.16;5072471;28;20427;-64
2023/05/15 04:09:37;;;;;;;10.43;4.83;;;;;;;-143.84;96.87;44013.38;5072728;28;20426;-63
2023/05/15 04:12:06;;;;;;;4.73;4.43;;;;;;;-143.84;97.04;44001.94;5072626;28;20435;-63
2023/05/15 04:14:33;;;;;;;12.80;4.97;;;;;;;-143.84;97.04;44005.75;5072354;28;20443;-63
2023/05/15 04:17:00;;;;;;;5.43;4.90;;;;;;;-143.84;96.98;44009.56;5072325;28;20430;-64
2023/05/15 04:19:27;;;;;;;5.67;5.10;;;;;;;-143.84;96.52;44005.75;5072253;28;20437;-64
2023/05/15 04:21:55;;;;;;;7.20;5.67;;;;;;;-143.84;96.56;43990.53;5072176;28;20466;-63
2023/05/15 04:24:22;;;;;;;13.17;5.60;;;;;;;-143.84;96.43;43996.22;5072521;28;20517;-63
2023/05/15 04:26:49;;;;;;;13.33;4.60;;;;;;;-143.84;95.84;43979.09;5072021;28;20986;-63
2023/05/15 04:29:18;;;;;;;6.80;5.07;;;;;;;-143.84;95.61;43969.59;5072468;28;20426;-63
2023/05/15 04:31:45;;;;;;;4.97;4.57;;;;;;;-143.84;95.25;43939.13;5072173;28;20437;-63
2023/05/15 04:34:12;;;;;;;4.57;4.27;;;;;;;-143.84;94.83;43918.19;5072363;28;20437;-63
2023/05/15 04:36:39;;;;;;;5.50;4.60;;;;;;;-143.84;93.69;43870.59;5072549;28;20463;-63
2023/05/15 04:39:07;;;;;;;5.70;5.13;;;;;;;-143.84;93.60;43882.00;5072430;28;20788;-63
2023/05/15 04:41:34;;;;;;;5.27;4.37;;;;;;;-143.84;93.54;43883.91;5071978;28;20541;-62
2023/05/15 04:44:02;;;;;;;8.23;5.53;;;;;;;-143.84;93.65;43885.81;5071962;28;20429;-62
2023/05/15 04:46:33;;;;;;;7.80;4.67;;;;;;;-143.84;93.34;43866.78;5072006;28;20428;-62
2023/05/15 04:49:00;;;;;;;9.63;4.63;;;;;;;-143.84;93.09;43862.97;5072005;28;20974;-62
2023/05/15 04:51:27;;;;;;;5.83;4.70;;;;;;;-143.84;93.14;43845.84;5071930;28;20433;-62
2023/05/15 04:53:54;;;;;;;9.70;4.70;;;;;;;-143.84;93.38;43855.38;5072276;28;20429;-63
2023/05/15 04:56:21;;;;;;;5.13;4.73;;;;;;;-143.84;92.63;43826.81;5072258;28;20490;-62
2023/05/15 04:58:48;;;;;;;6.70;4.00;;;;;;;-143.84;90.83;43750.69;5071857;28;21015;-62
2023/05/15 05:01:15;;;;;;;8.03;4.90;;;;;;;-143.84;91.06;43792.56;5072101;28;20890;-63
2023/05/15 05:03:44;;;;;;;6.30;4.30;;;;;;;-143.84;91.62;43805.88;5072186;28;20878;-62
2023/05/15 05:06:11;;;;;;;7.20;3.90;;;;;;;-143.84;91.37;43794.47;5072101;28;20448;-63
2023/05/15 05:08:38;;;;;;;7.40;5.17;;;;;;;-143.84;90.71;43758.28;5071817;28;20429;-62
2023/05/15 05:11:05;;;;;;;6.07;4.97;;;;;;;-143.84;90.78;43765.91;5071984;28;20453;-63
2023/05/15 05:13:32;;;;;;;10.43;5.80;;;;;;;-143.84;90.52;43777.31;5072089;28;20468;-63
2023/05/15 05:16:00;;;;;;;4.23;3.93;;;;;;;-143.84;89.44;43769.72;5072060;28;20436;-63
2023/05/15 05:18:27;;;;;;;4.53;4.13;;;;;;;-143.84;89.24;43830.63;5071988;28;20425;-62
2023/05/15 05:21:01;;;;;;;4.37;3.90;;;;;;;-143.84;88.68;43836.34;5071904;28;20872;-63
2023/05/15 05:23:28;;;;;;;6.40;4.10;;;;;;;-143.84;88.64;43802.06;5071629;28;20440;-63
2023/05/15 05:25:55;;;;;;;4.67;4.27;;;;;;;-143.84;88.63;43885.81;5071629;28;20943;-63
2023/05/15 05:28:22;;;;;;;4.43;3.30;;;;;;;-143.84;88.37;43887.72;5071357;28;20910;-63
2023/05/15 05:30:49;;;;;;;4.87;3.73;;;;;;;-143.84;87.74;43984.81;5071599;28;20433;-63
2023/05/15 05:33:16;;;;;;;15.17;3.40;;;;;;;-143.84;87.36;44041.91;5071566;28;20468;-63
2023/05/15 05:35:43;;;;;;;5.57;4.03;;;;;;;-143.84;86.43;44279.88;5072576;28;20437;-64
2023/05/15 05:38:12;;;;;;;2.97;2.87;;;;;;;-143.84;85.85;44413.13;5071851;28;20808;-62
2023/05/15 05:40:39;;;;;;;4.23;3.90;;;;;;;-143.84;84.68;44632.09;5071534;28;20517;-63
2023/05/15 05:43:06;;;;;;;7.53;4.77;;;;;;;-143.84;83.23;44793.91;5071337;28;20481;-63
2023/05/15 05:45:33;;;;;;;5.33;4.53;;;;;;;-143.84;81.45;44959.56;5071464;28;20482;-63
2023/05/15 05:48:00;;;;;;;4.70;4.30;;;;;;;-143.84;80.41;44990.03;5072824;28;20447;-63
2023/05/15 05:50:28;;;;;;;12.80;6.30;;;;;;;-143.84;80.36;44959.56;5074972;28;20441;-63
2023/05/15 05:52:55;;;;;;;8.20;4.47;;;;;;;-143.84;79.65;44969.09;5075277;28;20926;-63
2023/05/15 05:55:23;;;;;;;11.10;5.57;;;;;;;-143.84;79.79;44967.19;5074900;28;20437;-62
2023/05/15 05:57:51;;;;;;;7.70;4.60;;;;;;;-143.84;78.57;45018.59;5074920;28;20512;-63
2023/05/15 06:00:19;;;;;;;7.83;5.57;;;;;;;-143.84;77.26;45033.84;5074851;28;20425;-62
2023/05/15 06:02:46;;;;;;;6.60;4.50;;;;;;;-143.84;78.15;45026.22;5074964;28;20544;-63
2023/05/15 06:05:15;;;;;;;6.00;3.17;;;;;;;-143.84;75.52;45047.16;5074815;28;20523;-63
2023/05/15 06:07:43;;;;;;;5.27;3.20;;;;;;;-143.84;73.88;45045.25;5075056;28;20424;-62
2023/05/15 06:10:11;;;;;;;3.60;3.27;;;;;;;-143.84;73.31;45052.88;5074648;28;20544;-63
2023/05/15 06:12:40;;;;;;;2.87;2.67;;;;;;;-143.84;71.59;45054.78;5074957;28;20529;-62
2023/05/15 06:15:08;;;;;;;3.53;3.23;;;;;;;-143.84;71.78;45073.81;5074557;28;20438;-63
2023/05/15 06:17:35;;;;;;;4.90;3.03;;;;;;;-143.84;68.61;45077.63;5074841;28;20425;-62
2023/05/15 06:20:05;;;;;;;4.43;2.70;;;;;;;-143.84;70.95;45028.13;5074464;28;20440;-62
2023/05/15 06:22:33;;;;;;;3.30;3.10;;;;;;;-143.84;67.59;45083.34;5074731;28;20469;-62
2023/05/15 06:25:00;;;;;;;3.77;2.60;;;;;;;-143.84;67.69;45073.81;5074368;28;20434;-62
2023/05/15 06:27:27;;;;;;;10.03;3.87;;;;;;;-143.84;70.41;45070.00;5074139;28;21015;-62
2023/05/15 06:29:55;;;;;;;5.73;3.00;;;;;;;-143.84;69.17;45070.00;5074705;28;20438;-62
2023/05/15 06:32:22;;;;;;;3.70;3.40;;;;;;;-143.84;61.89;45085.25;5074599;28;20495;-62
2023/05/15 06:34:50;;;;;;;3.27;3.00;;;;;;;-143.84;64.02;45073.81;5074204;28;20495;-62
2023/05/15 06:37:17;;;;;;;2.90;2.70;;;;;;;-143.84;64.33;45037.66;5074523;28;20494;-62
2023/05/15 06:39:44;;;;;;;4.30;3.03;;;;;;;-143.84;60.69;45083.34;5070592;28;20522;-62
2023/05/15 06:42:11;;;;;;;3.70;3.40;;;;;;;-143.84;62.00;45066.22;5069649;28;20523;-62
2023/05/15 06:44:39;;;;;;;2.63;2.43;;;;;;;-143.84;60.95;45054.78;5070012;28;20527;-62
2023/05/15 06:47:07;;;;;;;6.83;2.40;;;;;;;-143.84;58.88;45064.31;5070571;28;20507;-62
2023/05/15 06:49:34;;;;;;;3.20;2.57;;;;;;;-143.84;51.54;45049.06;5071073;28;20435;-62
2023/05/15 06:52:01;;;;;;;2.93;2.60;;;;;;;-143.84;55.29;45045.25;5070811;28;20447;-62
2023/05/15 06:54:29;;;;;;;6.37;3.53;;;;;;;-143.84;49.08;45052.88;5070379;28;21012;-62
2023/05/15 06:56:56;;;;;;;4.13;2.40;;;;;;;-143.84;45.81;45054.78;5070556;28;20468;-63
2023/05/15 06:59:23;;;;;;;6.03;2.90;;;;;;;-143.84;50.65;45049.06;5070143;28;20440;-62
2023/05/15 07:01:50;;;;;;;2.60;2.40;;;;;;;-143.84;42.85;45033.84;5070494;28;20511;-62
2023/05/15 07:04:18;;;;;;;7.47;2.33;;;;;;;-143.84;44.14;45045.25;5070494;28;21237;-62
2023/05/15 07:06:45;;;;;;;5.90;3.37;;;;;;;-143.84;40.01;45060.50;5070388;28;20447;-62
2023/05/15 07:09:13;;;;;;;6.27;2.70;;;;;;;-143.84;42.25;45056.69;5070381;28;20443;-62
2023/05/15 07:11:41;;;;;;;8.27;2.93;;;;;;;-143.84;44.94;45037.66;5070587;28;20865;-62
2023/05/15 07:14:08;;;;;;;3.63;2.13;;;;;;;-143.84;43.62;45045.25;5069864;28;20455;-62
2023/05/15 07:16:35;;;;;;;4.90;2.40;;;;;;;-143.84;44.61;45043.34;5069989;28;20472;-62
2023/05/15 07:19:02;;;;;;;7.30;2.70;;;;;;;-143.84;46.26;45037.66;5070066;28;20497;-62
2023/05/15 07:21:31;;;;;;;8.20;2.57;;;;;;;-143.84;48.65;45049.06;5070006;28;20448;-62
2023/05/15 07:23:58;;;;;;;2.93;2.37;;;;;;;-143.84;48.36;45041.44;5070079;28;20446;-62
2023/05/15 07:26:25;;;;;;;7.00;2.67;;;;;;;-143.84;45.75;45030.03;5070198;28;20515;-62
2023/05/15 07:28:52;;;;;;;7.33;2.40;;;;;;;-143.84;44.50;45022.41;5054423;28;20554;-62
2023/05/15 07:31:20;;;;;;;3.10;2.70;;;;;;;-143.84;43.03;45043.34;5049880;28;20490;-62
2023/05/15 07:33:47;;;;;;;3.80;2.63;;;;;;;-143.84;44.55;45016.69;5064728;28;20457;-62
2023/05/15 07:36:14;;;;;;;2.87;2.57;;;;;;;-143.84;44.81;45070.00;5069302;28;20535;-62
2023/05/15 07:38:43;;;;;;;16.00;5.37;;;;;;;-143.84;44.50;45037.66;5069510;28;21022;-62
2023/05/15 07:41:10;;;;;;;2.70;2.50;;;;;;;-143.84;42.49;45050.97;5068930;28;20444;-62
2023/05/15 07:43:37;;;;;;;5.60;3.33;;;;;;;-143.84;44.73;45052.88;5069007;28;20533;-62
2023/05/15 07:46:04;;;;;;;5.70;2.23;;;;;;;-143.84;46.63;45056.69;5069701;28;20441;-62
2023/05/15 07:48:31;;;;;;;4.80;2.50;;;;;;;-143.84;47.97;45050.97;5069607;28;20440;-62
2023/05/15 07:50:58;;;;;;;4.47;2.30;;;;;;;-143.84;45.75;45005.28;5069324;28;20885;-62
2023/05/15 07:53:25;;;;;;;2.90;2.70;;;;;;;-143.84;44.97;45049.06;5069201;28;20450;-62
2023/05/15 07:55:54;;;;;;;3.33;3.03;;;;;;;-143.84;43.55;45026.22;5069380;28;20502;-62
2023/05/15 07:58:22;;;;;;;4.70;2.97;;;;;;;-143.84;43.96;45064.31;5069645;28;20449;-62
2023/05/15 08:00:49;;;;;;;2.70;2.50;;;;;;;-143.84;41.72;45049.06;5069247;28;20448;-63
2023/05/15 08:03:16;;;;;;;2.40;2.20;;;;;;;-143.84;40.72;45041.44;5069123;28;21414;-63
2023/05/15 08:05:43;;;;;;;8.30;2.17;;;;;;;-143.84;40.21;45016.69;5069511;28;21232;-63
2023/05/15 08:08:10;;;;;;;4.90;2.43;;;;;;;-143.84;39.22;45026.22;5069487;28;20474;-63
2023/05/15 08:10:37;;;;;;;4.90;2.50;;;;;;;-143.84;38.52;45047.16;5068610;28;20445;-63
2023/05/15 08:13:06;;;;;;;3.30;2.27;;;;;;;-143.84;38.01;45031.94;5069589;28;20515;-63
2023/05/15 08:15:33;;;;;;;1.80;1.70;;;;;;;-143.84;36.96;45022.41;5069429;28;20440;-63
2023/05/15 08:18:00;;;;;;;2.80;2.40;;;;;;;-143.84;39.42;45028.13;5068832;28;20444;-63
2023/05/15 08:20:27;;;;;;;5.30;2.30;;;;;;;-143.84;38.12;45045.25;5069383;28;20441;-63
2023/05/15 08:22:54;;;;;;;4.37;2.57;;;;;;;-143.84;40.43;45049.06;5068814;28;20473;-63
2023/05/15 08:25:21;;;;;;;6.40;2.30;;;;;;;-143.84;37.58;45030.03;5068804;28;20440;-63
2023/05/15 08:27:48;;;;;;;7.57;2.63;;;;;;;-143.84;41.51;45020.50;5068954;28;20986;-63
2023/05/15 08:30:17;;;;;;;9.63;2.27;;;;;;;-143.84;41.63;45033.84;5069034;28;21029;-63
2023/05/15 08:32:47;;;;;;;6.23;3.80;;;;;;;-143.84;42.33;45026.22;5068889;28;20955;-62
2023/05/15 08:35:15;;;;;;;3.00;2.70;;;;;;;-143.84;41.93;45049.06;5068847;28;20528;-63
2023/05/15 08:37:42;;;;;;;10.27;3.10;;;;;;;-143.84;40.71;45030.03;5068940;28;20939;-63
2023/05/15 08:40:09;;;;;;;5.97;2.60;;;;;;;-143.84;41.71;45003.38;5068865;28;20446;-64
2023/05/15 08:42:43;;;;;;;3.33;2.93;;;;;;;-143.84;41.49;45052.88;5068707;28;20482;-64
2023/05/15 08:45:13;;;;;;;9.30;3.80;;;;;;;-143.84;41.31;45030.03;5068750;28;20949;-64
2023/05/15 08:47:43;;;;;;;7.03;3.40;;;;;;;-143.84;41.92;45045.25;5068650;28;20449;-65
2023/05/15 08:50:13;;;;;;;5.13;3.10;;;;;;;-143.84;41.20;45037.66;5068985;28;20452;-64
2023/05/15 08:52:42;;;;;;;4.47;2.23;;;;;;;-143.84;39.11;45049.06;5068662;28;20444;-64
2023/05/15 08:55:10;;;;;;;9.93;2.70;;;;;;;-143.84;38.29;45031.94;5068734;28;20438;-64
2023/05/15 08:57:37;;;;;;;3.77;2.77;;;;;;;-143.84;37.56;45028.13;5068565;28;20441;-65
2023/05/15 09:00:08;;;;;;;2.90;2.57;;;;;;;-143.84;37.27;45026.22;5068922;28;20495;-64
2023/05/15 09:02:36;;;;;;;10.10;2.67;;;;;;;-143.84;35.94;45026.22;5068722;28;20492;-65
2023/05/15 09:05:06;;;;;;;4.23;3.03;;;;;;;-143.84;32.87;45022.41;5068844;28;20949;-64
2023/05/15 09:07:33;;;;;;;9.17;2.30;;;;;;;-143.84;36.15;45030.03;5068414;28;20448;-64
2023/05/15 09:10:02;;;;;;;4.17;3.03;;;;;;;-143.84;35.14;45016.69;5068508;28;20498;-65
2023/05/15 09:12:34;;;;;;;4.00;2.43;;;;;;;-143.84;34.37;45007.19;5068765;28;20450;-65
2023/05/15 09:15:12;;;;;;;3.53;3.17;;;;;;;-143.84;32.10;45022.41;5068676;28;20434;-65
2023/05/15 09:17:41;;;;;;;4.83;3.70;;;;;;;-143.84;34.19;45022.41;5068561;28;20517;-65
2023/05/15 09:20:25;;;;;;;13.40;3.77;;;;;;;-143.84;33.99;45026.22;5068376;28;20448;-65
2023/05/15 09:22:52;;;;;;;10.90;3.20;;;;;;;-143.84;32.89;45024.31;5071003;28;20590;-64
2023/05/15 09:25:33;;;;;;;3.83;2.80;;;;;;;-143.84;32.46;45045.25;5072800;28;20430;-64
2023/05/15 09:28:00;;;;;;;9.03;4.40;;;;;;;-143.84;34.76;45020.50;5067720;28;20501;-64
2023/05/15 09:30:29;;;;;;;6.77;4.30;;;;;;;-143.84;37.07;45016.69;5051986;28;20444;-65
2023/05/15 09:32:59;;;;;;;3.53;3.23;;;;;;;-143.84;37.64;45049.06;5052097;28;21013;-64
2023/05/15 09:35:34;;;;;;;4.50;2.70;;;;;;;-143.84;38.39;45022.41;5052156;28;20438;-65
2023/05/15 09:38:04;;;;;;;3.30;2.70;;;;;;;-143.84;37.21;45045.25;5052023;28;20448;-65
2023/05/15 09:40:32;;;;;;;5.27;2.80;;;;;;;-143.84;39.83;45024.31;5052016;28;20875;-65
2023/05/15 09:42:59;;;;;;;8.80;2.47;;;;;;;-143.84;36.92;45039.53;5066128;28;21045;-65
2023/05/15 09:45:28;;;;;;;4.30;2.53;;;;;;;-143.84;39.40;45043.34;5071327;28;20437;-65
2023/05/15 09:47:57;;;;;;;3.50;2.30;;;;;;;-143.84;38.81;45028.13;5071672;28;20455;-65
2023/05/15 09:50:32;;;;;;;2.50;2.30;;;;;;;-143.84;37.84;45003.38;5071401;28;20524;-65
2023/05/15 09:53:00;;;;;;;13.23;2.20;;;;;;;-143.84;36.58;45022.41;5071137;28;21008;-65
2023/05/15 09:55:28;;;;;;;2.63;2.43;;;;;;;-143.84;37.35;45030.03;5071381;28;20442;-65
2023/05/15 09:58:09;;;;;;;12.70;3.40;;;;;;;-143.84;35.98;45012.88;5071678;28;20503;-65
2023/05/15 10:00:37;;;;;;;8.73;2.60;;;;;;;-143.84;36.13;45007.19;5071646;28;20913;-65
2023/05/15 10:03:05;;;;;;;4.20;2.60;;;;;;;-143.84;35.42;45026.22;5071540;28;20472;-65
2023/05/15 10:05:33;;;;;;;4.23;1.97;;;;;;;-143.84;35.36;45028.13;5071601;28;20484;-65
2023/05/15 10:08:02;;;;;;;2.93;1.80;;;;;;;-143.84;34.12;45028.13;5064584;28;20468;-65
2023/05/15 10:10:31;;;;;;;6.37;2.13;;;;;;;-143.84;33.51;45014.78;5051530;28;20489;-65
2023/05/15 10:13:02;;;;;;;2.33;2.03;;;;;;;-143.84;34.60;45030.03;5051349;28;20442;-65
2023/05/15 10:15:30;;;;;;;5.63;2.33;;;;;;;-143.84;34.34;45030.03;5051708;28;20537;-65
2023/05/15 10:17:57;;;;;;;4.60;2.03;;;;;;;-143.84;32.70;45018.59;5051194;28;20850;-65
2023/05/15 10:20:25;;;;;;;11.67;2.10;;;;;;;-143.84;33.35;45035.75;5051167;28;20843;-65
2023/05/15 10:22:53;;;;;;;5.20;2.10;;;;;;;-143.84;34.24;45024.31;5051001;28;20539;-65
2023/05/15 10:25:28;;;;;;;3.30;2.77;;;;;;;-143.84;36.47;45035.75;5051275;28;20501;-65
2023/05/15 10:27:55;;;;;;;3.33;2.77;;;;;;;-143.84;36.89;45005.28;5050861;28;20486;-65
2023/05/15 10:30:24;;;;;;;6.20;2.53;;;;;;;-143.84;37.21;45026.22;5051156;28;20438;-65
2023/05/15 10:32:52;;;;;;;5.50;2.47;;;;;;;-143.84;37.47;45030.03;5051073;28;20500;-65
2023/05/15 10:35:19;;;;;;;9.60;2.40;;;;;;;-143.84;37.72;45018.59;5050144;28;20441;-65
2023/05/15 10:37:48;;;;;;;6.70;2.30;;;;;;;-143.84;37.80;45037.66;5051325;28;20439;-65
2023/05/15 10:40:17;;;;;;;4.03;2.70;;;;;;;-143.84;38.65;45026.22;5051139;28;20442;-65
2023/05/15 10:42:47;;;;;;;4.83;2.60;;;;;;;-143.84;38.32;45041.44;5062010;28;20485;-65
2023/05/15 10:45:14;;;;;;;3.37;2.40;;;;;;;-143.84;38.35;45020.50;5070839;28;20454;-65
2023/05/15 10:47:44;;;;;;;3.10;2.43;;;;;;;-143.84;39.22;45030.03;5070257;28;20433;-65
2023/05/15 10:50:13;;;;;;;10.90;2.87;;;;;;;-143.84;36.96;45050.97;5090221;28;20497;-65
2023/05/15 10:52:40;;;;;;;3.40;2.37;;;;;;;-143.84;37.51;45037.66;5090532;28;20437;-65
2023/05/15 10:55:09;;;;;;;5.73;2.70;;;;;;;-143.84;36.93;45018.59;5091317;28;20432;-65
2023/05/15 10:57:37;;;;;;;5.10;2.90;;;;;;;-143.84;36.78;45045.25;5082464;28;20450;-65
2023/05/15 11:00:25;;;;;;;6.10;3.00;;;;;;;-143.84;37.64;45010.97;5066803;28;20465;-65
2023/05/15 11:02:55;;;;;;;4.63;2.63;;;;;;;-143.84;37.25;45035.75;5070220;28;20481;-65
2023/05/15 11:05:23;;;;;;;8.73;2.63;;;;;;;-143.84;37.72;45026.22;5058538;28;20490;-65
2023/05/15 11:08:26;;;;;;;7.53;2.70;;;;;;;-143.84;36.27;45037.66;5070222;28;20456;-65
2023/05/15 11:10:53;;;;;;;6.20;2.40;;;;;;;-143.84;38.58;45030.03;5050390;28;20444;-65
2023/05/15 11:13:20;;;;;;;3.00;2.80;;;;;;;-143.84;38.32;45009.09;5050286;28;20530;-65
2023/05/15 11:15:49;;;;;;;2.63;2.43;;;;;;;-143.84;38.51;45026.22;5050429;28;20442;-65
2023/05/15 11:18:16;;;;;;;3.23;2.90;;;;;;;-143.84;38.13;45039.53;5050165;28;20866;-65
2023/05/15 11:21:07;;;;;;;5.50;2.90;;;;;;;-143.84;37.85;45012.88;5050182;28;20454;-65
2023/05/15 11:23:41;;;;;;;3.07;2.70;;;;;;;-143.84;38.71;45028.13;5049556;28;21002;-65